sensor_id;sensor_type;location;lat;lon;timestamp;P1;durP1;ratioP1;P2;durP2;ratioP2
10275;SDS011;5183;51.190;6.820;2023-03-24T00:02:13;4.57;;;2.57;;
10275;SDS011;5183;51.190;6.820;2023-03-24T00:04:40;5.43;;;2.93;;
10275;SDS011;5183;51.190;6.820;2023-03-24T00:07:09;5.50;;;2.77;;
10275;SDS011;5183;51.190;6.820;2023-03-24T00:09:38;3.60;;;2.73;;
10275;SDS011;5183;51.190;6.820;2023-03-24T00:12:06;3.77;;;2.80;;
10275;SDS011;5183;51.190;6.820;2023-03-24T00:14:34;3.30;;;2.77;;
10275;SDS011;5183;51.190;6.820;2023-03-24T00:17:02;4.23;;;2.60;;
10275;SDS011;5183;51.190;6.820;2023-03-24T00:19:29;5.77;;;2.87;;
10275;SDS011;5183;51.190;6.820;2023-03-24T00:21:57;4.03;;;3.00;;
10275;SDS011;5183;51.190;6.820;2023-03-24T00:24:26;4.80;;;2.90;;
10275;SDS011;5183;51.190;6.820;2023-03-24T00:26:53;3.33;;;3.00;;
10275;SDS011;5183;51.190;6.820;2023-03-24T00:29:21;4.40;;;2.80;;
10275;SDS011;5183;51.190;6.820;2023-03-24T00:31:49;4.57;;;2.60;;
10275;SDS011;5183;51.190;6.820;2023-03-24T00:34:17;3.47;;;2.80;;
10275;SDS011;5183;51.190;6.820;2023-03-24T00:36:46;3.70;;;2.87;;
10275;SDS011;5183;51.190;6.820;2023-03-24T00:39:15;4.47;;;2.80;;
10275;SDS011;5183;51.190;6.820;2023-03-24T00:41:44;3.00;;;2.70;;
10275;SDS011;5183;51.190;6.820;2023-03-24T00:44:13;3.40;;;2.90;;
10275;SDS011;5183;51.190;6.820;2023-03-24T00:46:42;3.97;;;2.93;;
10275;SDS011;5183;51.190;6.820;2023-03-24T00:49:10;4.63;;;2.63;;
10275;SDS011;5183;51.190;6.820;2023-03-24T00:51:40;3.83;;;2.97;;
10275;SDS011;5183;51.190;6.820;2023-03-24T00:54:10;5.03;;;3.07;;
10275;SDS011;5183;51.190;6.820;2023-03-24T00:56:38;3.90;;;3.17;;
10275;SDS011;5183;51.190;6.820;2023-03-24T00:59:08;4.00;;;3.50;;
10275;SDS011;5183;51.190;6.820;2023-03-24T01:01:38;4.27;;;3.20;;
10275;SDS011;5183;51.190;6.820;2023-03-24T01:04:05;4.07;;;3.07;;
10275;SDS011;5183;51.190;6.820;2023-03-24T01:06:32;5.93;;;3.30;;
10275;SDS011;5183;51.190;6.820;2023-03-24T01:09:01;4.10;;;3.17;;
10275;SDS011;5183;51.190;6.820;2023-03-24T01:11:32;3.87;;;3.47;;
10275;SDS011;5183;51.190;6.820;2023-03-24T01:14:01;4.70;;;3.37;;
10275;SDS011;5183;51.190;6.820;2023-03-24T01:16:30;4.77;;;3.33;;
10275;SDS011;5183;51.190;6.820;2023-03-24T01:18:57;3.87;;;3.03;;
10275;SDS011;5183;51.190;6.820;2023-03-24T01:21:24;4.20;;;3.80;;
10275;SDS011;5183;51.190;6.820;2023-03-24T01:23:52;4.20;;;3.43;;
10275;SDS011;5183;51.190;6.820;2023-03-24T01:26:19;5.23;;;3.50;;
10275;SDS011;5183;51.190;6.820;2023-03-24T01:28:46;4.37;;;3.80;;
10275;SDS011;5183;51.190;6.820;2023-03-24T01:31:13;3.83;;;3.40;;
10275;SDS011;5183;51.190;6.820;2023-03-24T01:33:42;6.37;;;3.73;;
10275;SDS011;5183;51.190;6.820;2023-03-24T01:36:09;5.17;;;4.07;;
10275;SDS011;5183;51.190;6.820;2023-03-24T01:38:36;4.67;;;4.00;;
10275;SDS011;5183;51.190;6.820;2023-03-24T01:41:03;4.70;;;3.80;;
10275;SDS011;5183;51.190;6.820;2023-03-24T01:43:32;4.43;;;3.57;;
10275;SDS011;5183;51.190;6.820;2023-03-24T01:46:01;4.30;;;3.80;;
10275;SDS011;5183;51.190;6.820;2023-03-24T01:48:34;4.37;;;3.50;;
10275;SDS011;5183;51.190;6.820;2023-03-24T01:51:09;4.10;;;3.70;;
10275;SDS011;5183;51.190;6.820;2023-03-24T01:53:39;4.80;;;3.67;;
10275;SDS011;5183;51.190;6.820;2023-03-24T01:56:09;4.03;;;3.63;;
10275;SDS011;5183;51.190;6.820;2023-03-24T01:58:39;4.57;;;3.80;;
10275;SDS011;5183;51.190;6.820;2023-03-24T02:01:10;4.47;;;4.00;;
10275;SDS011;5183;51.190;6.820;2023-03-24T02:03:37;4.50;;;4.10;;
10275;SDS011;5183;51.190;6.820;2023-03-24T02:06:07;4.80;;;4.33;;
10275;SDS011;5183;51.190;6.820;2023-03-24T02:08:37;4.90;;;4.10;;
10275;SDS011;5183;51.190;6.820;2023-03-24T02:11:06;5.60;;;4.37;;
10275;SDS011;5183;51.190;6.820;2023-03-24T02:13:34;5.07;;;4.10;;
10275;SDS011;5183;51.190;6.820;2023-03-24T02:18:54;4.87;;;4.23;;
10275;SDS011;5183;51.190;6.820;2023-03-24T02:27:40;6.70;;;4.50;;
10275;SDS011;5183;51.190;6.820;2023-03-24T02:30:32;5.20;;;4.30;;
10275;SDS011;5183;51.190;6.820;2023-03-24T02:36:18;5.67;;;4.13;;
10275;SDS011;5183;51.190;6.820;2023-03-24T02:42:24;4.77;;;3.97;;
10275;SDS011;5183;51.190;6.820;2023-03-24T02:45:02;4.63;;;4.00;;
10275;SDS011;5183;51.190;6.820;2023-03-24T02:47:35;6.87;;;4.80;;
10275;SDS011;5183;51.190;6.820;2023-03-24T02:50:09;5.00;;;4.50;;
10275;SDS011;5183;51.190;6.820;2023-03-24T02:52:44;4.50;;;4.10;;
10275;SDS011;5183;51.190;6.820;2023-03-24T02:55:15;6.87;;;4.73;;
10275;SDS011;5183;51.190;6.820;2023-03-24T02:57:48;4.83;;;4.00;;
10275;SDS011;5183;51.190;6.820;2023-03-24T03:00:18;4.73;;;4.20;;
10275;SDS011;5183;51.190;6.820;2023-03-24T03:02:51;4.27;;;3.77;;
10275;SDS011;5183;51.190;6.820;2023-03-24T03:05:25;4.97;;;3.80;;
10275;SDS011;5183;51.190;6.820;2023-03-24T03:07:57;3.90;;;3.50;;
10275;SDS011;5183;51.190;6.820;2023-03-24T03:10:28;5.10;;;3.87;;
10275;SDS011;5183;51.190;6.820;2023-03-24T03:12:59;4.37;;;3.70;;
10275;SDS011;5183;51.190;6.820;2023-03-24T03:15:31;4.17;;;3.63;;
10275;SDS011;5183;51.190;6.820;2023-03-24T03:18:03;3.53;;;3.23;;
10275;SDS011;5183;51.190;6.820;2023-03-24T03:20:34;4.00;;;3.60;;
10275;SDS011;5183;51.190;6.820;2023-03-24T03:23:08;4.23;;;3.50;;
10275;SDS011;5183;51.190;6.820;2023-03-24T03:25:39;4.00;;;3.43;;
10275;SDS011;5183;51.190;6.820;2023-03-24T03:28:13;5.03;;;3.93;;
10275;SDS011;5183;51.190;6.820;2023-03-24T03:30:42;4.83;;;4.17;;
10275;SDS011;5183;51.190;6.820;2023-03-24T03:33:13;3.93;;;3.53;;
10275;SDS011;5183;51.190;6.820;2023-03-24T03:35:49;4.17;;;3.33;;
10275;SDS011;5183;51.190;6.820;2023-03-24T03:38:21;3.63;;;3.00;;
10275;SDS011;5183;51.190;6.820;2023-03-24T03:40:54;3.23;;;2.67;;
10275;SDS011;5183;51.190;6.820;2023-03-24T03:43:25;4.30;;;3.23;;
10275;SDS011;5183;51.190;6.820;2023-03-24T03:45:53;3.73;;;3.40;;
10275;SDS011;5183;51.190;6.820;2023-03-24T03:48:20;3.77;;;2.87;;
10275;SDS011;5183;51.190;6.820;2023-03-24T03:50:50;3.60;;;3.10;;
10275;SDS011;5183;51.190;6.820;2023-03-24T03:53:18;3.67;;;2.70;;
10275;SDS011;5183;51.190;6.820;2023-03-24T03:55:48;2.73;;;2.53;;
10275;SDS011;5183;51.190;6.820;2023-03-24T03:58:16;3.53;;;2.90;;
10275;SDS011;5183;51.190;6.820;2023-03-24T04:00:44;3.00;;;2.63;;
10275;SDS011;5183;51.190;6.820;2023-03-24T04:03:18;3.53;;;2.97;;
10275;SDS011;5183;51.190;6.820;2023-03-24T04:06:00;2.87;;;2.60;;
10275;SDS011;5183;51.190;6.820;2023-03-24T04:08:33;3.17;;;2.87;;
10275;SDS011;5183;51.190;6.820;2023-03-24T04:11:25;3.07;;;2.77;;
10275;SDS011;5183;51.190;6.820;2023-03-24T04:14:17;4.73;;;2.80;;
10275;SDS011;5183;51.190;6.820;2023-03-24T04:16:59;3.57;;;2.27;;
10275;SDS011;5183;51.190;6.820;2023-03-24T04:19:34;2.83;;;2.40;;
10275;SDS011;5183;51.190;6.820;2023-03-24T04:22:15;3.20;;;2.87;;
10275;SDS011;5183;51.190;6.820;2023-03-24T04:24:51;3.40;;;2.80;;
10275;SDS011;5183;51.190;6.820;2023-03-24T04:27:24;4.00;;;3.40;;
10275;SDS011;5183;51.190;6.820;2023-03-24T04:30:04;3.87;;;3.50;;
10275;SDS011;5183;51.190;6.820;2023-03-24T04:32:40;6.07;;;4.03;;
10275;SDS011;5183;51.190;6.820;2023-03-24T04:35:15;4.20;;;3.63;;
10275;SDS011;5183;51.190;6.820;2023-03-24T04:37:50;3.90;;;3.50;;
10275;SDS011;5183;51.190;6.820;2023-03-24T04:40:19;4.00;;;3.60;;
10275;SDS011;5183;51.190;6.820;2023-03-24T04:42:48;4.27;;;3.30;;
10275;SDS011;5183;51.190;6.820;2023-03-24T04:45:17;3.53;;;3.23;;
10275;SDS011;5183;51.190;6.820;2023-03-24T04:47:51;4.40;;;3.00;;
10275;SDS011;5183;51.190;6.820;2023-03-24T04:50:30;4.13;;;3.00;;
10275;SDS011;5183;51.190;6.820;2023-03-24T04:53:00;3.63;;;2.60;;
10275;SDS011;5183;51.190;6.820;2023-03-24T04:55:30;3.77;;;2.83;;
10275;SDS011;5183;51.190;6.820;2023-03-24T04:58:09;3.57;;;2.80;;
10275;SDS011;5183;51.190;6.820;2023-03-24T05:00:35;4.77;;;2.60;;
10275;SDS011;5183;51.190;6.820;2023-03-24T05:03:04;5.10;;;3.10;;
10275;SDS011;5183;51.190;6.820;2023-03-24T05:05:33;3.90;;;3.20;;
10275;SDS011;5183;51.190;6.820;2023-03-24T05:08:00;4.87;;;2.97;;
10275;SDS011;5183;51.190;6.820;2023-03-24T05:10:27;4.30;;;3.20;;
10275;SDS011;5183;51.190;6.820;2023-03-24T05:12:54;3.07;;;2.80;;
10275;SDS011;5183;51.190;6.820;2023-03-24T05:15:21;3.00;;;2.60;;
10275;SDS011;5183;51.190;6.820;2023-03-24T05:17:48;3.87;;;2.77;;
10275;SDS011;5183;51.190;6.820;2023-03-24T05:20:17;3.60;;;2.80;;
10275;SDS011;5183;51.190;6.820;2023-03-24T05:22:44;4.83;;;2.80;;
10275;SDS011;5183;51.190;6.820;2023-03-24T05:25:12;2.33;;;2.10;;
10275;SDS011;5183;51.190;6.820;2023-03-24T05:27:39;2.50;;;2.10;;
10275;SDS011;5183;51.190;6.820;2023-03-24T05:30:07;3.30;;;2.13;;
10275;SDS011;5183;51.190;6.820;2023-03-24T05:32:34;3.30;;;2.10;;
10275;SDS011;5183;51.190;6.820;2023-03-24T05:35:01;4.17;;;2.27;;
10275;SDS011;5183;51.190;6.820;2023-03-24T05:37:30;3.07;;;2.00;;
10275;SDS011;5183;51.190;6.820;2023-03-24T05:39:57;3.20;;;2.03;;
10275;SDS011;5183;51.190;6.820;2023-03-24T05:42:24;3.33;;;2.27;;
10275;SDS011;5183;51.190;6.820;2023-03-24T05:44:51;2.40;;;1.70;;
10275;SDS011;5183;51.190;6.820;2023-03-24T05:47:17;2.83;;;1.80;;
10275;SDS011;5183;51.190;6.820;2023-03-24T05:49:44;5.20;;;1.87;;
10275;SDS011;5183;51.190;6.820;2023-03-24T05:52:12;3.90;;;1.83;;
10275;SDS011;5183;51.190;6.820;2023-03-24T05:54:41;5.50;;;1.97;;
10275;SDS011;5183;51.190;6.820;2023-03-24T05:57:10;3.77;;;1.70;;
10275;SDS011;5183;51.190;6.820;2023-03-24T05:59:38;3.87;;;1.70;;
10275;SDS011;5183;51.190;6.820;2023-03-24T06:02:06;4.57;;;1.83;;
10275;SDS011;5183;51.190;6.820;2023-03-24T06:04:32;5.90;;;1.90;;
10275;SDS011;5183;51.190;6.820;2023-03-24T06:06:59;3.67;;;1.70;;
10275;SDS011;5183;51.190;6.820;2023-03-24T06:09:28;3.90;;;1.67;;
10275;SDS011;5183;51.190;6.820;2023-03-24T06:11:58;7.53;;;1.97;;
10275;SDS011;5183;51.190;6.820;2023-03-24T06:14:25;3.93;;;1.80;;
10275;SDS011;5183;51.190;6.820;2023-03-24T06:16:51;4.87;;;2.20;;
10275;SDS011;5183;51.190;6.820;2023-03-24T06:19:18;4.30;;;1.83;;
10275;SDS011;5183;51.190;6.820;2023-03-24T06:21:46;6.50;;;2.40;;
10275;SDS011;5183;51.190;6.820;2023-03-24T06:24:14;6.30;;;2.13;;
10275;SDS011;5183;51.190;6.820;2023-03-24T06:26:41;8.30;;;2.00;;
10275;SDS011;5183;51.190;6.820;2023-03-24T06:29:10;5.47;;;2.07;;
10275;SDS011;5183;51.190;6.820;2023-03-24T06:31:37;6.90;;;2.00;;
10275;SDS011;5183;51.190;6.820;2023-03-24T06:34:04;6.33;;;1.83;;
10275;SDS011;5183;51.190;6.820;2023-03-24T06:36:31;8.17;;;2.33;;
10275;SDS011;5183;51.190;6.820;2023-03-24T06:38:59;5.43;;;1.70;;
10275;SDS011;5183;51.190;6.820;2023-03-24T06:41:26;5.57;;;1.90;;
10275;SDS011;5183;51.190;6.820;2023-03-24T06:43:53;5.37;;;1.83;;
10275;SDS011;5183;51.190;6.820;2023-03-24T06:46:21;5.53;;;1.90;;
10275;SDS011;5183;51.190;6.820;2023-03-24T06:48:48;6.10;;;2.07;;
10275;SDS011;5183;51.190;6.820;2023-03-24T06:51:15;5.37;;;1.90;;
10275;SDS011;5183;51.190;6.820;2023-03-24T06:53:42;5.03;;;2.13;;
10275;SDS011;5183;51.190;6.820;2023-03-24T06:56:09;5.70;;;2.10;;
10275;SDS011;5183;51.190;6.820;2023-03-24T06:58:41;5.00;;;1.80;;
10275;SDS011;5183;51.190;6.820;2023-03-24T07:01:08;4.47;;;1.90;;
10275;SDS011;5183;51.190;6.820;2023-03-24T07:03:36;9.20;;;2.40;;
10275;SDS011;5183;51.190;6.820;2023-03-24T07:06:03;6.80;;;2.13;;
10275;SDS011;5183;51.190;6.820;2023-03-24T07:08:31;7.60;;;2.20;;
10275;SDS011;5183;51.190;6.820;2023-03-24T07:10:59;2.93;;;1.83;;
10275;SDS011;5183;51.190;6.820;2023-03-24T07:13:27;6.53;;;2.10;;
10275;SDS011;5183;51.190;6.820;2023-03-24T07:15:54;6.03;;;2.13;;
10275;SDS011;5183;51.190;6.820;2023-03-24T07:18:21;7.00;;;2.40;;
10275;SDS011;5183;51.190;6.820;2023-03-24T07:20:49;5.00;;;1.90;;
10275;SDS011;5183;51.190;6.820;2023-03-24T07:23:16;6.30;;;2.07;;
10275;SDS011;5183;51.190;6.820;2023-03-24T07:25:43;5.90;;;2.23;;
10275;SDS011;5183;51.190;6.820;2023-03-24T07:28:11;6.13;;;2.83;;
10275;SDS011;5183;51.190;6.820;2023-03-24T07:30:38;6.37;;;2.13;;
10275;SDS011;5183;51.190;6.820;2023-03-24T07:33:05;6.93;;;2.23;;
10275;SDS011;5183;51.190;6.820;2023-03-24T07:35:34;6.63;;;2.30;;
10275;SDS011;5183;51.190;6.820;2023-03-24T07:38:02;7.60;;;2.53;;
10275;SDS011;5183;51.190;6.820;2023-03-24T07:40:29;9.43;;;2.80;;
10275;SDS011;5183;51.190;6.820;2023-03-24T07:42:59;6.03;;;2.67;;
10275;SDS011;5183;51.190;6.820;2023-03-24T07:45:26;8.73;;;3.33;;
10275;SDS011;5183;51.190;6.820;2023-03-24T07:47:53;10.77;;;3.00;;
10275;SDS011;5183;51.190;6.820;2023-03-24T07:50:21;10.30;;;2.93;;
10275;SDS011;5183;51.190;6.820;2023-03-24T07:52:48;8.57;;;4.00;;
10275;SDS011;5183;51.190;6.820;2023-03-24T07:55:17;11.97;;;4.20;;
10275;SDS011;5183;51.190;6.820;2023-03-24T07:57:44;12.83;;;4.13;;
10275;SDS011;5183;51.190;6.820;2023-03-24T08:00:12;8.60;;;4.10;;
10275;SDS011;5183;51.190;6.820;2023-03-24T08:02:42;8.77;;;3.80;;
10275;SDS011;5183;51.190;6.820;2023-03-24T08:05:10;13.60;;;4.83;;
10275;SDS011;5183;51.190;6.820;2023-03-24T08:07:38;13.82;;;4.35;;
10275;SDS011;5183;51.190;6.820;2023-03-24T08:10:07;12.33;;;3.57;;
10275;SDS011;5183;51.190;6.820;2023-03-24T08:12:36;11.27;;;4.13;;
10275;SDS011;5183;51.190;6.820;2023-03-24T08:15:03;13.10;;;4.13;;
10275;SDS011;5183;51.190;6.820;2023-03-24T08:17:31;11.23;;;4.03;;
10275;SDS011;5183;51.190;6.820;2023-03-24T08:19:58;8.67;;;3.83;;
10275;SDS011;5183;51.190;6.820;2023-03-24T08:22:25;9.00;;;3.80;;
10275;SDS011;5183;51.190;6.820;2023-03-24T08:24:52;9.00;;;3.30;;
10275;SDS011;5183;51.190;6.820;2023-03-24T08:27:19;9.67;;;3.30;;
10275;SDS011;5183;51.190;6.820;2023-03-24T08:29:47;8.77;;;3.07;;
10275;SDS011;5183;51.190;6.820;2023-03-24T08:32:14;8.80;;;3.08;;
10275;SDS011;5183;51.190;6.820;2023-03-24T08:34:41;10.10;;;3.00;;
10275;SDS011;5183;51.190;6.820;2023-03-24T08:37:08;12.60;;;3.17;;
10275;SDS011;5183;51.190;6.820;2023-03-24T08:39:35;9.00;;;3.10;;
10275;SDS011;5183;51.190;6.820;2023-03-24T08:42:02;11.50;;;3.07;;
10275;SDS011;5183;51.190;6.820;2023-03-24T08:44:29;11.30;;;2.97;;
10275;SDS011;5183;51.190;6.820;2023-03-24T08:46:58;10.13;;;3.10;;
10275;SDS011;5183;51.190;6.820;2023-03-24T08:49:26;9.87;;;2.60;;
10275;SDS011;5183;51.190;6.820;2023-03-24T08:51:55;11.23;;;2.70;;
10275;SDS011;5183;51.190;6.820;2023-03-24T08:54:22;10.83;;;3.27;;
10275;SDS011;5183;51.190;6.820;2023-03-24T08:56:50;10.97;;;3.10;;
10275;SDS011;5183;51.190;6.820;2023-03-24T08:59:17;8.60;;;2.77;;
10275;SDS011;5183;51.190;6.820;2023-03-24T09:01:44;9.67;;;3.10;;
10275;SDS011;5183;51.190;6.820;2023-03-24T09:04:12;11.83;;;3.40;;
10275;SDS011;5183;51.190;6.820;2023-03-24T09:06:38;13.03;;;3.50;;
10275;SDS011;5183;51.190;6.820;2023-03-24T09:09:05;10.20;;;3.17;;
10275;SDS011;5183;51.190;6.820;2023-03-24T09:11:32;11.13;;;3.07;;
10275;SDS011;5183;51.190;6.820;2023-03-24T09:13:59;10.20;;;3.30;;
10275;SDS011;5183;51.190;6.820;2023-03-24T09:16:28;10.30;;;2.73;;
10275;SDS011;5183;51.190;6.820;2023-03-24T09:18:58;11.17;;;3.13;;
10275;SDS011;5183;51.190;6.820;2023-03-24T09:21:27;11.30;;;3.43;;
10275;SDS011;5183;51.190;6.820;2023-03-24T09:23:53;10.97;;;3.30;;
10275;SDS011;5183;51.190;6.820;2023-03-24T09:26:20;8.37;;;3.20;;
10275;SDS011;5183;51.190;6.820;2023-03-24T09:28:48;12.17;;;3.63;;
10275;SDS011;5183;51.190;6.820;2023-03-24T09:31:14;12.40;;;3.87;;
10275;SDS011;5183;51.190;6.820;2023-03-24T09:33:41;11.00;;;3.57;;
10275;SDS011;5183;51.190;6.820;2023-03-24T09:36:08;9.70;;;3.33;;
10275;SDS011;5183;51.190;6.820;2023-03-24T09:38:37;10.93;;;3.83;;
10275;SDS011;5183;51.190;6.820;2023-03-24T09:41:10;12.50;;;4.10;;
10275;SDS011;5183;51.190;6.820;2023-03-24T09:43:43;9.83;;;3.80;;
10275;SDS011;5183;51.190;6.820;2023-03-24T09:46:14;9.27;;;3.73;;
10275;SDS011;5183;51.190;6.820;2023-03-24T09:48:48;11.93;;;4.35;;
10275;SDS011;5183;51.190;6.820;2023-03-24T09:51:19;13.50;;;4.53;;
10275;SDS011;5183;51.190;6.820;2023-03-24T09:53:51;11.33;;;4.00;;
10275;SDS011;5183;51.190;6.820;2023-03-24T09:56:23;9.93;;;3.87;;
10275;SDS011;5183;51.190;6.820;2023-03-24T09:58:57;12.30;;;4.07;;
10275;SDS011;5183;51.190;6.820;2023-03-24T10:01:28;11.60;;;3.50;;
10275;SDS011;5183;51.190;6.820;2023-03-24T10:03:56;9.65;;;3.58;;
10275;SDS011;5183;51.190;6.820;2023-03-24T10:06:25;11.77;;;3.77;;
10275;SDS011;5183;51.190;6.820;2023-03-24T10:08:57;9.37;;;4.07;;
10275;SDS011;5183;51.190;6.820;2023-03-24T10:11:35;11.90;;;3.85;;
10275;SDS011;5183;51.190;6.820;2023-03-24T10:14:12;12.70;;;3.97;;
10275;SDS011;5183;51.190;6.820;2023-03-24T10:16:53;11.50;;;3.60;;
10275;SDS011;5183;51.190;6.820;2023-03-24T10:19:28;7.47;;;2.90;;
10275;SDS011;5183;51.190;6.820;2023-03-24T10:22:09;10.30;;;3.20;;
10275;SDS011;5183;51.190;6.820;2023-03-24T10:24:46;11.33;;;3.30;;
10275;SDS011;5183;51.190;6.820;2023-03-24T10:27:19;10.20;;;3.30;;
10275;SDS011;5183;51.190;6.820;2023-03-24T10:29:52;8.10;;;3.03;;
10275;SDS011;5183;51.190;6.820;2023-03-24T10:32:25;9.70;;;3.13;;
10275;SDS011;5183;51.190;6.820;2023-03-24T10:34:58;8.90;;;3.10;;
10275;SDS011;5183;51.190;6.820;2023-03-24T10:37:33;10.40;;;3.13;;
10275;SDS011;5183;51.190;6.820;2023-03-24T10:40:02;9.70;;;2.80;;
10275;SDS011;5183;51.190;6.820;2023-03-24T10:42:40;8.90;;;2.80;;
10275;SDS011;5183;51.190;6.820;2023-03-24T10:45:10;9.87;;;2.57;;
10275;SDS011;5183;51.190;6.820;2023-03-24T10:47:39;8.00;;;3.17;;
10275;SDS011;5183;51.190;6.820;2023-03-24T10:50:07;7.07;;;2.30;;
10275;SDS011;5183;51.190;6.820;2023-03-24T10:52:37;10.63;;;2.40;;
10275;SDS011;5183;51.190;6.820;2023-03-24T10:55:12;6.43;;;2.37;;
10275;SDS011;5183;51.190;6.820;2023-03-24T10:57:41;10.30;;;2.50;;
10275;SDS011;5183;51.190;6.820;2023-03-24T11:00:14;8.57;;;2.30;;
10275;SDS011;5183;51.190;6.820;2023-03-24T11:02:51;7.50;;;2.63;;
10275;SDS011;5183;51.190;6.820;2023-03-24T11:05:24;10.10;;;2.37;;
10275;SDS011;5183;51.190;6.820;2023-03-24T11:07:54;8.00;;;2.60;;
10275;SDS011;5183;51.190;6.820;2023-03-24T11:10:27;9.30;;;2.67;;
10275;SDS011;5183;51.190;6.820;2023-03-24T11:13:00;9.13;;;2.57;;
10275;SDS011;5183;51.190;6.820;2023-03-24T11:15:29;3.70;;;2.00;;
10275;SDS011;5183;51.190;6.820;2023-03-24T11:17:58;7.03;;;2.20;;
10275;SDS011;5183;51.190;6.820;2023-03-24T11:20:29;6.47;;;2.90;;
10275;SDS011;5183;51.190;6.820;2023-03-24T11:23:01;6.53;;;2.30;;
10275;SDS011;5183;51.190;6.820;2023-03-24T11:25:31;7.83;;;2.33;;
10275;SDS011;5183;51.190;6.820;2023-03-24T11:28:00;6.68;;;2.42;;
10275;SDS011;5183;51.190;6.820;2023-03-24T11:30:29;10.45;;;2.80;;
10275;SDS011;5183;51.190;6.820;2023-03-24T11:33:00;10.93;;;2.57;;
10275;SDS011;5183;51.190;6.820;2023-03-24T11:35:28;7.57;;;2.23;;
10275;SDS011;5183;51.190;6.820;2023-03-24T11:37:56;8.13;;;2.77;;
10275;SDS011;5183;51.190;6.820;2023-03-24T11:40:30;6.23;;;2.60;;
10275;SDS011;5183;51.190;6.820;2023-03-24T11:42:57;9.33;;;2.57;;
10275;SDS011;5183;51.190;6.820;2023-03-24T11:45:26;6.93;;;2.40;;
10275;SDS011;5183;51.190;6.820;2023-03-24T11:47:59;7.63;;;2.07;;
10275;SDS011;5183;51.190;6.820;2023-03-24T11:50:29;9.05;;;2.30;;
10275;SDS011;5183;51.190;6.820;2023-03-24T11:53:01;7.35;;;2.30;;
10275;SDS011;5183;51.190;6.820;2023-03-24T11:55:34;8.68;;;2.20;;
10275;SDS011;5183;51.190;6.820;2023-03-24T11:58:08;5.03;;;2.07;;
10275;SDS011;5183;51.190;6.820;2023-03-24T12:00:42;9.07;;;2.30;;
10275;SDS011;5183;51.190;6.820;2023-03-24T12:03:19;8.15;;;2.35;;
10275;SDS011;5183;51.190;6.820;2023-03-24T12:06:12;7.93;;;2.23;;
10275;SDS011;5183;51.190;6.820;2023-03-24T12:08:48;12.27;;;2.60;;
10275;SDS011;5183;51.190;6.820;2023-03-24T12:11:26;7.83;;;2.17;;
10275;SDS011;5183;51.190;6.820;2023-03-24T12:14:03;7.27;;;2.37;;
10275;SDS011;5183;51.190;6.820;2023-03-24T12:16:36;8.73;;;2.03;;
10275;SDS011;5183;51.190;6.820;2023-03-24T12:22:10;6.60;;;2.17;;
10275;SDS011;5183;51.190;6.820;2023-03-24T12:25:01;7.47;;;1.80;;
10275;SDS011;5183;51.190;6.820;2023-03-24T12:27:50;8.20;;;2.20;;
10275;SDS011;5183;51.190;6.820;2023-03-24T12:30:30;10.20;;;2.60;;
10275;SDS011;5183;51.190;6.820;2023-03-24T12:33:07;10.43;;;2.50;;
10275;SDS011;5183;51.190;6.820;2023-03-24T12:35:48;8.37;;;2.20;;
10275;SDS011;5183;51.190;6.820;2023-03-24T12:38:33;8.60;;;1.80;;
10275;SDS011;5183;51.190;6.820;2023-03-24T12:44:09;9.18;;;2.42;;
10275;SDS011;5183;51.190;6.820;2023-03-24T12:46:47;9.25;;;2.15;;
10275;SDS011;5183;51.190;6.820;2023-03-24T12:49:25;6.93;;;2.33;;
10275;SDS011;5183;51.190;6.820;2023-03-24T12:52:19;7.50;;;2.33;;
10275;SDS011;5183;51.190;6.820;2023-03-24T12:54:57;6.73;;;2.10;;
10275;SDS011;5183;51.190;6.820;2023-03-24T12:57:31;7.80;;;2.20;;
10275;SDS011;5183;51.190;6.820;2023-03-24T13:00:04;9.00;;;2.23;;
10275;SDS011;5183;51.190;6.820;2023-03-24T13:02:40;6.17;;;2.03;;
10275;SDS011;5183;51.190;6.820;2023-03-24T13:05:13;9.83;;;2.27;;
10275;SDS011;5183;51.190;6.820;2023-03-24T13:07:42;5.57;;;2.00;;
10275;SDS011;5183;51.190;6.820;2023-03-24T13:10:16;7.90;;;2.27;;
10275;SDS011;5183;51.190;6.820;2023-03-24T13:12:50;6.57;;;2.20;;
10275;SDS011;5183;51.190;6.820;2023-03-24T13:15:23;4.50;;;1.80;;
10275;SDS011;5183;51.190;6.820;2023-03-24T13:18:01;6.40;;;1.90;;
10275;SDS011;5183;51.190;6.820;2023-03-24T13:20:38;7.50;;;2.27;;
10275;SDS011;5183;51.190;6.820;2023-03-24T13:23:19;8.93;;;2.10;;
10275;SDS011;5183;51.190;6.820;2023-03-24T13:25:57;10.27;;;2.63;;
10275;SDS011;5183;51.190;6.820;2023-03-24T13:28:31;8.00;;;2.00;;
10275;SDS011;5183;51.190;6.820;2023-03-24T13:31:07;10.33;;;2.10;;
10275;SDS011;5183;51.190;6.820;2023-03-24T13:33:37;5.77;;;2.00;;
10275;SDS011;5183;51.190;6.820;2023-03-24T13:36:15;6.77;;;2.27;;
10275;SDS011;5183;51.190;6.820;2023-03-24T13:38:57;7.70;;;2.07;;
10275;SDS011;5183;51.190;6.820;2023-03-24T13:41:31;6.73;;;2.00;;
10275;SDS011;5183;51.190;6.820;2023-03-24T13:44:02;8.10;;;1.70;;
10275;SDS011;5183;51.190;6.820;2023-03-24T13:46:36;7.03;;;2.03;;
10275;SDS011;5183;51.190;6.820;2023-03-24T13:49:06;7.27;;;1.90;;
10275;SDS011;5183;51.190;6.820;2023-03-24T13:51:39;7.53;;;1.87;;
10275;SDS011;5183;51.190;6.820;2023-03-24T13:54:14;6.90;;;2.10;;
10275;SDS011;5183;51.190;6.820;2023-03-24T13:56:46;8.10;;;1.80;;
10275;SDS011;5183;51.190;6.820;2023-03-24T13:59:25;7.23;;;1.80;;
10275;SDS011;5183;51.190;6.820;2023-03-24T14:04:48;8.10;;;1.60;;
10275;SDS011;5183;51.190;6.820;2023-03-24T14:07:31;10.20;;;1.87;;
10275;SDS011;5183;51.190;6.820;2023-03-24T14:10:22;4.97;;;1.67;;
10275;SDS011;5183;51.190;6.820;2023-03-24T14:13:00;4.40;;;1.43;;
10275;SDS011;5183;51.190;6.820;2023-03-24T14:15:28;7.03;;;1.50;;
10275;SDS011;5183;51.190;6.820;2023-03-24T14:18:14;5.57;;;1.67;;
10275;SDS011;5183;51.190;6.820;2023-03-24T14:21:04;8.15;;;2.00;;
10275;SDS011;5183;51.190;6.820;2023-03-24T14:23:33;6.73;;;1.50;;
10275;SDS011;5183;51.190;6.820;2023-03-24T14:26:02;4.23;;;1.53;;
10275;SDS011;5183;51.190;6.820;2023-03-24T14:28:36;7.70;;;1.93;;
10275;SDS011;5183;51.190;6.820;2023-03-24T14:31:08;6.30;;;2.17;;
10275;SDS011;5183;51.190;6.820;2023-03-24T14:33:55;4.57;;;1.83;;
10275;SDS011;5183;51.190;6.820;2023-03-24T14:36:27;6.30;;;2.40;;
10275;SDS011;5183;51.190;6.820;2023-03-24T14:38:56;9.17;;;2.00;;
10275;SDS011;5183;51.190;6.820;2023-03-24T14:41:36;8.27;;;1.80;;
10275;SDS011;5183;51.190;6.820;2023-03-24T14:44:06;6.47;;;1.80;;
10275;SDS011;5183;51.190;6.820;2023-03-24T14:46:34;4.63;;;1.73;;
10275;SDS011;5183;51.190;6.820;2023-03-24T14:49:12;4.00;;;1.60;;
10275;SDS011;5183;51.190;6.820;2023-03-24T14:51:44;5.07;;;1.63;;
10275;SDS011;5183;51.190;6.820;2023-03-24T14:54:19;3.97;;;1.57;;
10275;SDS011;5183;51.190;6.820;2023-03-24T14:56:52;5.53;;;1.83;;
10275;SDS011;5183;51.190;6.820;2023-03-24T14:59:24;8.10;;;1.83;;
10275;SDS011;5183;51.190;6.820;2023-03-24T15:01:58;6.10;;;1.73;;
10275;SDS011;5183;51.190;6.820;2023-03-24T15:04:38;5.00;;;2.10;;
10275;SDS011;5183;51.190;6.820;2023-03-24T15:07:05;7.03;;;1.63;;
10275;SDS011;5183;51.190;6.820;2023-03-24T15:09:37;6.17;;;2.83;;
10275;SDS011;5183;51.190;6.820;2023-03-24T15:12:13;5.53;;;1.50;;
10275;SDS011;5183;51.190;6.820;2023-03-24T15:14:40;5.03;;;1.80;;
10275;SDS011;5183;51.190;6.820;2023-03-24T15:17:15;4.63;;;1.80;;
10275;SDS011;5183;51.190;6.820;2023-03-24T15:19:49;5.80;;;1.73;;
10275;SDS011;5183;51.190;6.820;2023-03-24T15:22:23;6.23;;;2.13;;
10275;SDS011;5183;51.190;6.820;2023-03-24T15:24:52;9.73;;;2.30;;
10275;SDS011;5183;51.190;6.820;2023-03-24T15:27:24;6.80;;;1.73;;
10275;SDS011;5183;51.190;6.820;2023-03-24T15:29:55;6.13;;;2.10;;
10275;SDS011;5183;51.190;6.820;2023-03-24T15:32:24;4.63;;;1.73;;
10275;SDS011;5183;51.190;6.820;2023-03-24T15:34:59;7.80;;;1.80;;
10275;SDS011;5183;51.190;6.820;2023-03-24T15:37:30;6.90;;;2.27;;
10275;SDS011;5183;51.190;6.820;2023-03-24T15:39:58;5.30;;;1.80;;
10275;SDS011;5183;51.190;6.820;2023-03-24T15:42:26;9.07;;;1.77;;
10275;SDS011;5183;51.190;6.820;2023-03-24T15:44:54;8.20;;;2.07;;
10275;SDS011;5183;51.190;6.820;2023-03-24T15:47:36;5.50;;;1.80;;
10275;SDS011;5183;51.190;6.820;2023-03-24T15:52:59;3.93;;;1.40;;